sensor_id;sensor_type;location;lat;lon;timestamp;temperature;humidity
20740;DHT22;10530;49.968;19.844;2023-09-30T00:03:51;13.10;99.90
20740;DHT22;10530;49.968;19.844;2023-09-30T00:08:54;13.00;99.90
20740;DHT22;10530;49.968;19.844;2023-09-30T00:13:58;13.00;99.90
20740;DHT22;10530;49.968;19.844;2023-09-30T00:19:01;13.00;99.90
20740;DHT22;10530;49.968;19.844;2023-09-30T00:24:06;13.10;99.90
20740;DHT22;10530;49.968;19.844;2023-09-30T00:29:09;13.10;99.90
20740;DHT22;10530;49.968;19.844;2023-09-30T00:34:12;13.10;99.90
20740;DHT22;10530;49.968;19.844;2023-09-30T00:39:15;13.00;99.90
20740;DHT22;10530;49.968;19.844;2023-09-30T00:44:18;12.90;99.90
20740;DHT22;10530;49.968;19.844;2023-09-30T00:49:22;12.90;99.90
20740;DHT22;10530;49.968;19.844;2023-09-30T00:54:26;12.80;99.90
20740;DHT22;10530;49.968;19.844;2023-09-30T00:59:30;12.70;99.90
20740;DHT22;10530;49.968;19.844;2023-09-30T01:04:35;12.60;99.90
20740;DHT22;10530;49.968;19.844;2023-09-30T01:09:39;12.70;99.90
20740;DHT22;10530;49.968;19.844;2023-09-30T01:14:42;12.80;99.90
20740;DHT22;10530;49.968;19.844;2023-09-30T01:19:45;12.80;99.90
20740;DHT22;10530;49.968;19.844;2023-09-30T01:24:49;12.70;99.90
20740;DHT22;10530;49.968;19.844;2023-09-30T01:29:52;12.70;99.90
20740;DHT22;10530;49.968;19.844;2023-09-30T01:34:54;12.70;99.90
20740;DHT22;10530;49.968;19.844;2023-09-30T01:39:57;12.70;99.90
20740;DHT22;10530;49.968;19.844;2023-09-30T01:45:00;12.70;99.90
20740;DHT22;10530;49.968;19.844;2023-09-30T01:50:02;12.60;99.90
20740;DHT22;10530;49.968;19.844;2023-09-30T01:55:06;12.60;99.90
20740;DHT22;10530;49.968;19.844;2023-09-30T02:00:09;12.60;99.90
20740;DHT22;10530;49.968;19.844;2023-09-30T02:05:16;12.80;99.90
20740;DHT22;10530;49.968;19.844;2023-09-30T02:10:19;12.70;99.90
20740;DHT22;10530;49.968;19.844;2023-09-30T02:15:22;12.80;99.90
20740;DHT22;10530;49.968;19.844;2023-09-30T02:20:25;12.70;99.90
20740;DHT22;10530;49.968;19.844;2023-09-30T02:25:28;12.50;99.90
20740;DHT22;10530;49.968;19.844;2023-09-30T02:30:33;12.40;99.90
20740;DHT22;10530;49.968;19.844;2023-09-30T02:35:37;12.20;99.90
20740;DHT22;10530;49.968;19.844;2023-09-30T02:40:41;12.20;99.90
20740;DHT22;10530;49.968;19.844;2023-09-30T02:45:48;12.30;99.90
20740;DHT22;10530;49.968;19.844;2023-09-30T02:50:51;12.30;99.90
20740;DHT22;10530;49.968;19.844;2023-09-30T02:55:53;12.40;99.90
20740;DHT22;10530;49.968;19.844;2023-09-30T03:00:59;12.40;99.90
20740;DHT22;10530;49.968;19.844;2023-09-30T03:06:02;12.40;99.90
20740;DHT22;10530;49.968;19.844;2023-09-30T03:11:05;12.30;99.90
20740;DHT22;10530;49.968;19.844;2023-09-30T03:16:08;12.50;99.90
20740;DHT22;10530;49.968;19.844;2023-09-30T03:21:14;12.50;99.90
20740;DHT22;10530;49.968;19.844;2023-09-30T03:26:18;12.70;99.90
20740;DHT22;10530;49.968;19.844;2023-09-30T03:31:21;12.80;99.90
20740;DHT22;10530;49.968;19.844;2023-09-30T03:36:25;12.90;99.90
20740;DHT22;10530;49.968;19.844;2023-09-30T03:41:27;13.00;99.90
20740;DHT22;10530;49.968;19.844;2023-09-30T03:46:31;13.20;99.90
20740;DHT22;10530;49.968;19.844;2023-09-30T03:51:34;13.40;99.90
20740;DHT22;10530;49.968;19.844;2023-09-30T03:56:36;13.40;99.90
20740;DHT22;10530;49.968;19.844;2023-09-30T04:01:41;13.30;99.90
20740;DHT22;10530;49.968;19.844;2023-09-30T04:06:45;13.40;99.90
20740;DHT22;10530;49.968;19.844;2023-09-30T04:11:49;13.50;99.90
20740;DHT22;10530;49.968;19.844;2023-09-30T04:16:52;13.50;99.90
20740;DHT22;10530;49.968;19.844;2023-09-30T04:21:57;13.80;99.90
20740;DHT22;10530;49.968;19.844;2023-09-30T04:26:59;13.90;99.90
20740;DHT22;10530;49.968;19.844;2023-09-30T04:32:05;13.90;99.90
20740;DHT22;10530;49.968;19.844;2023-09-30T04:37:09;14.00;99.90
20740;DHT22;10530;49.968;19.844;2023-09-30T04:42:11;14.10;99.90
20740;DHT22;10530;49.968;19.844;2023-09-30T04:47:14;14.10;99.90
20740;DHT22;10530;49.968;19.844;2023-09-30T04:52:17;14.20;99.90
20740;DHT22;10530;49.968;19.844;2023-09-30T04:57:19;14.40;99.90
20740;DHT22;10530;49.968;19.844;2023-09-30T05:02:23;14.50;99.90
20740;DHT22;10530;49.968;19.844;2023-09-30T05:07:26;14.40;99.90
20740;DHT22;10530;49.968;19.844;2023-09-30T05:12:32;14.30;99.90
20740;DHT22;10530;49.968;19.844;2023-09-30T05:17:35;14.20;99.90
20740;DHT22;10530;49.968;19.844;2023-09-30T05:22:39;14.20;99.90
20740;DHT22;10530;49.968;19.844;2023-09-30T05:27:48;14.20;99.90
20740;DHT22;10530;49.968;19.844;2023-09-30T05:32:51;14.20;99.90
20740;DHT22;10530;49.968;19.844;2023-09-30T05:37:55;14.20;99.90
20740;DHT22;10530;49.968;19.844;2023-09-30T05:42:58;14.10;99.90
20740;DHT22;10530;49.968;19.844;2023-09-30T05:48:05;14.10;99.90
20740;DHT22;10530;49.968;19.844;2023-09-30T05:53:08;14.10;99.90
20740;DHT22;10530;49.968;19.844;2023-09-30T05:58:14;14.20;99.90
20740;DHT22;10530;49.968;19.844;2023-09-30T06:03:18;14.30;99.90
20740;DHT22;10530;49.968;19.844;2023-09-30T06:08:21;14.50;99.90
20740;DHT22;10530;49.968;19.844;2023-09-30T06:13:24;14.60;99.90
20740;DHT22;10530;49.968;19.844;2023-09-30T06:18:26;14.90;99.90
20740;DHT22;10530;49.968;19.844;2023-09-30T06:23:29;14.90;99.90
20740;DHT22;10530;49.968;19.844;2023-09-30T06:28:32;15.20;99.90
20740;DHT22;10530;49.968;19.844;2023-09-30T06:33:43;15.40;99.90
20740;DHT22;10530;49.968;19.844;2023-09-30T06:38:46;15.60;99.90
20740;DHT22;10530;49.968;19.844;2023-09-30T06:43:52;15.70;99.90
20740;DHT22;10530;49.968;19.844;2023-09-30T06:48:54;15.90;99.90
20740;DHT22;10530;49.968;19.844;2023-09-30T06:53:57;15.90;99.90
20740;DHT22;10530;49.968;19.844;2023-09-30T06:59:01;16.10;99.90
20740;DHT22;10530;49.968;19.844;2023-09-30T07:04:04;16.20;99.90
20740;DHT22;10530;49.968;19.844;2023-09-30T07:09:07;16.20;99.90
20740;DHT22;10530;49.968;19.844;2023-09-30T07:14:12;16.20;99.90
20740;DHT22;10530;49.968;19.844;2023-09-30T07:19:14;16.20;99.90
20740;DHT22;10530;49.968;19.844;2023-09-30T07:24:17;16.30;99.90
20740;DHT22;10530;49.968;19.844;2023-09-30T07:29:20;16.30;99.90
20740;DHT22;10530;49.968;19.844;2023-09-30T07:34:22;16.20;99.90
20740;DHT22;10530;49.968;19.844;2023-09-30T07:39:25;16.30;99.90
20740;DHT22;10530;49.968;19.844;2023-09-30T07:44:28;16.40;99.90
20740;DHT22;10530;49.968;19.844;2023-09-30T07:49:32;16.50;99.90
20740;DHT22;10530;49.968;19.844;2023-09-30T07:54:35;16.60;99.90
20740;DHT22;10530;49.968;19.844;2023-09-30T07:59:38;16.60;99.90
20740;DHT22;10530;49.968;19.844;2023-09-30T08:04:41;16.70;99.90
20740;DHT22;10530;49.968;19.844;2023-09-30T08:09:44;16.70;99.90
20740;DHT22;10530;49.968;19.844;2023-09-30T08:14:46;16.70;99.90
20740;DHT22;10530;49.968;19.844;2023-09-30T08:19:49;16.80;99.90
20740;DHT22;10530;49.968;19.844;2023-09-30T08:24:52;16.70;99.90
20740;DHT22;10530;49.968;19.844;2023-09-30T08:29:54;16.90;99.90
20740;DHT22;10530;49.968;19.844;2023-09-30T08:34:57;17.10;99.90
20740;DHT22;10530;49.968;19.844;2023-09-30T08:40:01;17.00;99.90
20740;DHT22;10530;49.968;19.844;2023-09-30T08:45:10;17.10;99.90
20740;DHT22;10530;49.968;19.844;2023-09-30T08:50:16;17.00;99.90
20740;DHT22;10530;49.968;19.844;2023-09-30T08:55:19;17.10;99.90
20740;DHT22;10530;49.968;19.844;2023-09-30T09:00:22;17.10;99.90
20740;DHT22;10530;49.968;19.844;2023-09-30T09:05:25;17.10;99.90
20740;DHT22;10530;49.968;19.844;2023-09-30T09:10:28;17.10;99.90
20740;DHT22;10530;49.968;19.844;2023-09-30T09:15:31;17.10;99.90
20740;DHT22;10530;49.968;19.844;2023-09-30T09:20:33;17.00;99.90
20740;DHT22;10530;49.968;19.844;2023-09-30T09:25:39;17.00;99.90
20740;DHT22;10530;49.968;19.844;2023-09-30T09:30:42;17.00;99.90
20740;DHT22;10530;49.968;19.844;2023-09-30T09:35:48;17.10;99.90
20740;DHT22;10530;49.968;19.844;2023-09-30T09:40:51;17.20;99.90
20740;DHT22;10530;49.968;19.844;2023-09-30T09:45:55;17.30;99.90
20740;DHT22;10530;49.968;19.844;2023-09-30T09:50:59;17.40;99.90
20740;DHT22;10530;49.968;19.844;2023-09-30T09:56:03;17.30;99.90
20740;DHT22;10530;49.968;19.844;2023-09-30T10:01:07;17.40;99.90
20740;DHT22;10530;49.968;19.844;2023-09-30T10:06:11;17.40;99.90
20740;DHT22;10530;49.968;19.844;2023-09-30T10:11:20;17.30;99.90
20740;DHT22;10530;49.968;19.844;2023-09-30T10:43:36;16.60;99.90
20740;DHT22;10530;49.968;19.844;2023-09-30T10:48:40;16.50;99.90
20740;DHT22;10530;49.968;19.844;2023-09-30T10:53:45;16.50;99.90
20740;DHT22;10530;49.968;19.844;2023-09-30T10:58:52;16.50;99.90
20740;DHT22;10530;49.968;19.844;2023-09-30T11:03:59;16.40;99.90
20740;DHT22;10530;49.968;19.844;2023-09-30T11:09:06;16.40;99.90
20740;DHT22;10530;49.968;19.844;2023-09-30T11:14:23;16.40;99.90
20740;DHT22;10530;49.968;19.844;2023-09-30T11:19:46;16.40;99.90
20740;DHT22;10530;49.968;19.844;2023-09-30T11:24:50;16.50;99.90
20740;DHT22;10530;49.968;19.844;2023-09-30T11:29:52;16.50;99.90
20740;DHT22;10530;49.968;19.844;2023-09-30T11:34:55;16.50;99.90
20740;DHT22;10530;49.968;19.844;2023-09-30T11:40:17;16.50;99.90
20740;DHT22;10530;49.968;19.844;2023-09-30T11:45:23;16.50;99.90
20740;DHT22;10530;49.968;19.844;2023-09-30T11:50:26;16.50;99.90
20740;DHT22;10530;49.968;19.844;2023-09-30T11:55:28;16.60;99.90
20740;DHT22;10530;49.968;19.844;2023-09-30T12:00:31;16.70;99.90
20740;DHT22;10530;49.968;19.844;2023-09-30T12:05:34;16.80;99.90
20740;DHT22;10530;49.968;19.844;2023-09-30T12:10:39;16.80;99.90
20740;DHT22;10530;49.968;19.844;2023-09-30T12:15:43;16.80;99.90
20740;DHT22;10530;49.968;19.844;2023-09-30T12:20:46;16.90;99.90
20740;DHT22;10530;49.968;19.844;2023-09-30T12:25:49;17.10;99.90
20740;DHT22;10530;49.968;19.844;2023-09-30T12:31:12;17.20;99.90
20740;DHT22;10530;49.968;19.844;2023-09-30T12:36:17;17.30;99.90
20740;DHT22;10530;49.968;19.844;2023-09-30T12:41:20;17.40;99.90
20740;DHT22;10530;49.968;19.844;2023-09-30T12:46:23;17.40;99.90
20740;DHT22;10530;49.968;19.844;2023-09-30T12:51:27;17.40;99.90
20740;DHT22;10530;49.968;19.844;2023-09-30T12:56:30;17.60;99.90
20740;DHT22;10530;49.968;19.844;2023-09-30T13:01:33;17.70;99.90
20740;DHT22;10530;49.968;19.844;2023-09-30T13:06:37;17.70;99.90
20740;DHT22;10530;49.968;19.844;2023-09-30T13:11:40;17.90;99.90
20740;DHT22;10530;49.968;19.844;2023-09-30T13:16:44;17.90;99.90
20740;DHT22;10530;49.968;19.844;2023-09-30T13:21:50;17.90;99.90
20740;DHT22;10530;49.968;19.844;2023-09-30T13:26:53;17.90;99.90
20740;DHT22;10530;49.968;19.844;2023-09-30T13:31:56;17.80;99.90
20740;DHT22;10530;49.968;19.844;2023-09-30T13:37:00;17.70;99.90
20740;DHT22;10530;49.968;19.844;2023-09-30T13:42:03;17.50;99.90
20740;DHT22;10530;49.968;19.844;2023-09-30T13:47:06;17.40;99.90
20740;DHT22;10530;49.968;19.844;2023-09-30T13:52:10;17.30;99.90
20740;DHT22;10530;49.968;19.844;2023-09-30T13:57:13;17.30;99.90
20740;DHT22;10530;49.968;19.844;2023-09-30T14:02:16;17.20;99.90
20740;DHT22;10530;49.968;19.844;2023-09-30T14:07:19;17.10;99.90
20740;DHT22;10530;49.968;19.844;2023-09-30T14:12:22;17.00;99.90
20740;DHT22;10530;49.968;19.844;2023-09-30T14:17:24;17.00;99.90
20740;DHT22;10530;49.968;19.844;2023-09-30T14:22:31;17.00;99.90
20740;DHT22;10530;49.968;19.844;2023-09-30T14:27:34;17.00;99.90
20740;DHT22;10530;49.968;19.844;2023-09-30T14:32:36;17.00;99.90
20740;DHT22;10530;49.968;19.844;2023-09-30T14:37:40;16.80;99.90
20740;DHT22;10530;49.968;19.844;2023-09-30T14:42:43;16.60;99.90
20740;DHT22;10530;49.968;19.844;2023-09-30T14:47:46;16.50;99.90
20740;DHT22;10530;49.968;19.844;2023-09-30T14:52:49;16.40;99.90
20740;DHT22;10530;49.968;19.844;2023-09-30T14:57:52;16.40;99.90
20740;DHT22;10530;49.968;19.844;2023-09-30T15:02:55;16.40;99.90
20740;DHT22;10530;49.968;19.844;2023-09-30T15:07:58;16.40;99.90
20740;DHT22;10530;49.968;19.844;2023-09-30T15:13:02;16.40;99.90
20740;DHT22;10530;49.968;19.844;2023-09-30T15:18:06;16.20;99.90
20740;DHT22;10530;49.968;19.844;2023-09-30T15:23:10;16.40;99.90
20740;DHT22;10530;49.968;19.844;2023-09-30T15:28:13;16.50;99.90
20740;DHT22;10530;49.968;19.844;2023-09-30T15:33:16;16.40;99.90
20740;DHT22;10530;49.968;19.844;2023-09-30T15:38:21;16.30;99.90
20740;DHT22;10530;49.968;19.844;2023-09-30T15:43:24;16.30;99.90
20740;DHT22;10530;49.968;19.844;2023-09-30T15:48:27;16.30;99.90
20740;DHT22;10530;49.968;19.844;2023-09-30T15:53:30;16.20;99.90
20740;DHT22;10530;49.968;19.844;2023-09-30T15:58:36;16.20;99.90
20740;DHT22;10530;49.968;19.844;2023-09-30T16:03:38;16.20;99.90
20740;DHT22;10530;49.968;19.844;2023-09-30T16:08:41;16.10;99.90
20740;DHT22;10530;49.968;19.844;2023-09-30T16:13:44;16.00;99.90
20740;DHT22;10530;49.968;19.844;2023-09-30T16:18:47;16.00;99.90
20740;DHT22;10530;49.968;19.844;2023-09-30T16:23:50;15.90;99.90
20740;DHT22;10530;49.968;19.844;2023-09-30T16:28:53;15.90;99.90
20740;DHT22;10530;49.968;19.844;2023-09-30T16:33:55;15.80;99.90
20740;DHT22;10530;49.968;19.844;2023-09-30T16:38:59;15.70;99.90
20740;DHT22;10530;49.968;19.844;2023-09-30T16:44:02;15.70;99.90
20740;DHT22;10530;49.968;19.844;2023-09-30T16:49:06;15.50;99.90
20740;DHT22;10530;49.968;19.844;2023-09-30T16:54:09;15.40;99.90
20740;DHT22;10530;49.968;19.844;2023-09-30T16:59:11;15.30;99.90
20740;DHT22;10530;49.968;19.844;2023-09-30T17:04:16;15.20;99.90
20740;DHT22;10530;49.968;19.844;2023-09-30T17:09:19;15.10;99.90
20740;DHT22;10530;49.968;19.844;2023-09-30T17:14:22;15.00;99.90
20740;DHT22;10530;49.968;19.844;2023-09-30T17:19:24;14.90;99.90
20740;DHT22;10530;49.968;19.844;2023-09-30T17:24:30;14.80;99.90
20740;DHT22;10530;49.968;19.844;2023-09-30T17:29:35;14.70;99.90
20740;DHT22;10530;49.968;19.844;2023-09-30T17:34:39;14.80;99.90
20740;DHT22;10530;49.968;19.844;2023-09-30T17:39:42;14.80;99.90
20740;DHT22;10530;49.968;19.844;2023-09-30T17:44:45;14.80;99.90
20740;DHT22;10530;49.968;19.844;2023-09-30T17:49:48;14.90;99.90
20740;DHT22;10530;49.968;19.844;2023-09-30T17:54:51;14.90;99.90
20740;DHT22;10530;49.968;19.844;2023-09-30T17:59:54;14.80;99.90
20740;DHT22;10530;49.968;19.844;2023-09-30T18:04:56;14.70;99.90
20740;DHT22;10530;49.968;19.844;2023-09-30T18:09:59;14.80;99.90
20740;DHT22;10530;49.968;19.844;2023-09-30T18:15:02;14.70;99.90
20740;DHT22;10530;49.968;19.844;2023-09-30T18:20:08;14.70;99.90
20740;DHT22;10530;49.968;19.844;2023-09-30T18:25:11;14.70;99.90
20740;DHT22;10530;49.968;19.844;2023-09-30T18:30:14;14.70;99.90
20740;DHT22;10530;49.968;19.844;2023-09-30T18:35:16;14.60;99.90
20740;DHT22;10530;49.968;19.844;2023-09-30T18:40:19;14.50;99.90
20740;DHT22;10530;49.968;19.844;2023-09-30T18:45:26;14.40;99.90
20740;DHT22;10530;49.968;19.844;2023-09-30T18:50:29;14.30;99.90
20740;DHT22;10530;49.968;19.844;2023-09-30T18:55:38;14.30;99.90
20740;DHT22;10530;49.968;19.844;2023-09-30T19:00:43;14.00;99.90
20740;DHT22;10530;49.968;19.844;2023-09-30T19:05:47;13.80;99.90
20740;DHT22;10530;49.968;19.844;2023-09-30T19:10:50;13.70;99.90
20740;DHT22;10530;49.968;19.844;2023-09-30T19:15:53;13.40;99.90
20740;DHT22;10530;49.968;19.844;2023-09-30T19:20:56;13.40;99.90
20740;DHT22;10530;49.968;19.844;2023-09-30T19:25:59;13.20;99.90
20740;DHT22;10530;49.968;19.844;2023-09-30T19:31:02;13.10;99.90
20740;DHT22;10530;49.968;19.844;2023-09-30T19:36:09;13.00;99.90
20740;DHT22;10530;49.968;19.844;2023-09-30T19:41:17;12.70;99.90
20740;DHT22;10530;49.968;19.844;2023-09-30T19:46:21;12.70;99.90
20740;DHT22;10530;49.968;19.844;2023-09-30T19:51:26;12.70;99.90
20740;DHT22;10530;49.968;19.844;2023-09-30T19:56:29;12.60;99.90
20740;DHT22;10530;49.968;19.844;2023-09-30T20:01:31;12.60;99.90
20740;DHT22;10530;49.968;19.844;2023-09-30T20:06:34;12.70;99.90
20740;DHT22;10530;49.968;19.844;2023-09-30T20:11:39;12.70;99.90
20740;DHT22;10530;49.968;19.844;2023-09-30T20:16:41;12.60;99.90
20740;DHT22;10530;49.968;19.844;2023-09-30T20:21:48;12.70;99.90
20740;DHT22;10530;49.968;19.844;2023-09-30T20:26:51;12.70;99.90
20740;DHT22;10530;49.968;19.844;2023-09-30T20:31:54;12.70;99.90
20740;DHT22;10530;49.968;19.844;2023-09-30T20:36:57;12.70;99.90
20740;DHT22;10530;49.968;19.844;2023-09-30T20:41:59;12.90;99.90
20740;DHT22;10530;49.968;19.844;2023-09-30T20:47:02;12.90;99.90
20740;DHT22;10530;49.968;19.844;2023-09-30T20:52:06;12.90;99.90
20740;DHT22;10530;49.968;19.844;2023-09-30T20:57:09;12.80;99.90
20740;DHT22;10530;49.968;19.844;2023-09-30T21:02:11;12.90;99.90
20740;DHT22;10530;49.968;19.844;2023-09-30T21:07:15;12.80;99.90
20740;DHT22;10530;49.968;19.844;2023-09-30T21:12:18;12.80;99.90
20740;DHT22;10530;49.968;19.844;2023-09-30T21:17:20;12.80;99.90
20740;DHT22;10530;49.968;19.844;2023-09-30T21:22:25;13.00;99.90
20740;DHT22;10530;49.968;19.844;2023-09-30T21:27:27;13.10;99.90
20740;DHT22;10530;49.968;19.844;2023-09-30T21:32:31;13.10;99.90
20740;DHT22;10530;49.968;19.844;2023-09-30T21:37:34;13.00;99.90
20740;DHT22;10530;49.968;19.844;2023-09-30T21:42:37;13.00;99.90
20740;DHT22;10530;49.968;19.844;2023-09-30T21:47:39;13.00;99.90
20740;DHT22;10530;49.968;19.844;2023-09-30T21:52:42;12.90;99.90
20740;DHT22;10530;49.968;19.844;2023-09-30T21:57:45;12.80;99.90
20740;DHT22;10530;49.968;19.844;2023-09-30T22:02:48;12.70;99.90
20740;DHT22;10530;49.968;19.844;2023-09-30T22:07:51;12.70;99.90
20740;DHT22;10530;49.968;19.844;2023-09-30T22:12:53;12.70;99.90
20740;DHT22;10530;49.968;19.844;2023-09-30T22:17:56;12.70;99.90
20740;DHT22;10530;49.968;19.844;2023-09-30T22:23:03;12.70;99.90
20740;DHT22;10530;49.968;19.844;2023-09-30T22:28:07;12.60;99.90
20740;DHT22;10530;49.968;19.844;2023-09-30T22:33:10;12.50;99.90
20740;DHT22;10530;49.968;19.844;2023-09-30T22:38:13;12.20;99.90
20740;DHT22;10530;49.968;19.844;2023-09-30T22:43:16;12.10;99.90
20740;DHT22;10530;49.968;19.844;2023-09-30T22:48:22;11.90;99.90
20740;DHT22;10530;49.968;19.844;2023-09-30T22:53:25;11.70;99.90
20740;DHT22;10530;49.968;19.844;2023-09-30T22:58:28;11.50;99.90
20740;DHT22;10530;49.968;19.844;2023-09-30T23:03:31;11.40;99.90
20740;DHT22;10530;49.968;19.844;2023-09-30T23:08:35;11.30;99.90
20740;DHT22;10530;49.968;19.844;2023-09-30T23:13:38;11.10;99.90
20740;DHT22;10530;49.968;19.844;2023-09-30T23:18:41;11.00;99.90
20740;DHT22;10530;49.968;19.844;2023-09-30T23:23:45;10.90;99.90
20740;DHT22;10530;49.968;19.844;2023-09-30T23:28:48;10.70;99.90
20740;DHT22;10530;49.968;19.844;2023-09-30T23:33:51;10.60;99.90
20740;DHT22;10530;49.968;19.844;2023-09-30T23:38:53;10.50;99.90
20740;DHT22;10530;49.968;19.844;2023-09-30T23:43:56;10.50;99.90
20740;DHT22;10530;49.968;19.844;2023-09-30T23:49:01;10.40;99.90
20740;DHT22;10530;49.968;19.844;2023-09-30T23:54:06;10.40;99.90
20740;DHT22;10530;49.968;19.844;2023-09-30T23:59:13;10.30;99.90
